Time;durP1;ratioP1;P1;durP2;ratioP2;P2;SDS_P1;SDS_P2;PMS_P1;PMS_P2;Temp;Humidity;BMP_temperature;BMP_pressure;BME280_temperature;BME280_humidity;BME280_pressure;Samples;Min_cycle;Max_cycle;Signal;HPM_P1;HPM_P2
2022/11/05 00:09:29;;;;;;;;;;;17.70;56.70;;;;;;5065867;28;19998;-61
2022/11/05 00:17:36;;;;;;;;;;;17.70;56.60;;;;;;5057308;28;19959;-61
2022/11/05 00:20:02;;;;;;;;;;;17.70;56.60;;;;;;5054815;28;19912;-60
2022/11/05 00:25:18;;;;;;;;;;;17.70;56.50;;;;;;5072808;28;20279;-61
2022/11/05 00:27:47;;;;;;;;;;;17.70;56.50;;;;;;5071341;28;19924;-60
2022/11/05 00:30:15;;;;;;;;;;;17.70;56.50;;;;;;5054659;28;19908;-61
2022/11/05 00:32:41;;;;;;;;;;;17.70;56.50;;;;;;5072442;28;19962;-61
2022/11/05 00:35:06;;;;;;;;;;;17.70;56.50;;;;;;5072692;28;19912;-61
2022/11/05 00:37:32;;;;;;;;;;;17.70;56.50;;;;;;5038065;28;19908;-61
2022/11/05 00:39:57;;;;;;;;;;;17.70;56.40;;;;;;5092311;28;19930;-61
2022/11/05 00:45:07;;;;;;;;;;;17.80;56.50;;;;;;5077468;28;20386;-61
2022/11/05 00:50:17;;;;;;;;;;;17.70;56.40;;;;;;5077302;28;19915;-59
2022/11/05 00:52:55;;;;;;;;;;;17.70;56.40;;;;;;5074325;28;19908;-60
2022/11/05 00:55:23;;;;;;;;;;;17.70;56.50;;;;;;5072496;28;19908;-60
2022/11/05 00:57:48;;;;;;;;;;;17.70;56.50;;;;;;5071399;28;20351;-60
2022/11/05 01:00:14;;;;;;;;;;;17.70;56.40;;;;;;5054419;28;19957;-60
2022/11/05 01:02:40;;;;;;;;;;;17.70;56.40;;;;;;5072096;28;19924;-59
2022/11/05 01:05:05;;;;;;;;;;;17.70;56.40;;;;;;5037544;28;20015;-60
2022/11/05 01:07:31;;;;;;;;;;;17.70;56.40;;;;;;5037615;28;19917;-59
2022/11/05 01:09:56;;;;;;;;;;;17.60;56.40;;;;;;5091744;28;20440;-59
2022/11/05 01:12:21;;;;;;;;;;;17.70;56.50;;;;;;5092039;28;20333;-60
2022/11/05 01:14:47;;;;;;;;;;;17.70;56.40;;;;;;5092028;28;19915;-60
2022/11/05 01:17:12;;;;;;;;;;;17.70;56.30;;;;;;5092366;28;19999;-59
2022/11/05 01:19:38;;;;;;;;;;;17.70;56.30;;;;;;5074215;28;19912;-59
2022/11/05 01:22:03;;;;;;;;;;;17.70;56.30;;;;;;5092400;28;19909;-60
2022/11/05 01:24:29;;;;;;;;;;;17.60;56.30;;;;;;5092265;28;19939;-60
2022/11/05 01:26:54;;;;;;;;;;;17.60;56.40;;;;;;5091599;28;19923;-59
2022/11/05 01:29:20;;;;;;;;;;;17.60;56.50;;;;;;5073680;28;19959;-60
2022/11/05 01:31:45;;;;;;;;;;;17.60;56.40;;;;;;5073925;28;19919;-59
2022/11/05 01:34:11;;;;;;;;;;;17.60;56.40;;;;;;5074874;28;19908;-59
2022/11/05 01:36:36;;;;;;;;;;;17.60;56.50;;;;;;5077634;28;19915;-59
2022/11/05 01:39:02;;;;;;;;;;;17.60;56.50;;;;;;5060495;28;19912;-59
2022/11/05 01:41:27;;;;;;;;;;;17.60;56.50;;;;;;5077449;28;19912;-59
2022/11/05 01:43:53;;;;;;;;;;;17.60;56.50;;;;;;5080883;28;19909;-59
2022/11/05 01:46:30;;;;;;;;;;;17.50;56.40;;;;;;5057429;28;19909;-59
2022/11/05 01:48:56;;;;;;;;;;;17.60;56.50;;;;;;5075281;28;19918;-59
2022/11/05 01:51:22;;;;;;;;;;;17.60;56.50;;;;;;5057367;28;19908;-60
2022/11/05 01:54:08;;;;;;;;;;;17.60;56.50;;;;;;5057321;28;19996;-59
2022/11/05 01:56:34;;;;;;;;;;;17.60;56.40;;;;;;5074069;28;19908;-60
2022/11/05 01:59:10;;;;;;;;;;;17.60;56.50;;;;;;5074980;28;19915;-60
2022/11/05 02:01:36;;;;;;;;;;;17.60;56.50;;;;;;5057342;28;20286;-60
2022/11/05 02:04:03;;;;;;;;;;;17.50;56.40;;;;;;5040446;28;19924;-60
2022/11/05 02:06:29;;;;;;;;;;;17.50;56.40;;;;;;5056687;28;19909;-59
2022/11/05 02:09:01;;;;;;;;;;;17.60;56.50;;;;;;5057280;28;19999;-59
2022/11/05 02:11:27;;;;;;;;;;;17.50;56.40;;;;;;5056793;28;19919;-59
2022/11/05 02:13:52;;;;;;;;;;;17.60;56.50;;;;;;5056403;28;19999;-60
2022/11/05 02:16:18;;;;;;;;;;;17.50;56.30;;;;;;5074830;28;19913;-60
2022/11/05 02:18:50;;;;;;;;;;;17.50;56.40;;;;;;5074758;28;19932;-60
2022/11/05 02:21:18;;;;;;;;;;;17.50;56.40;;;;;;5056861;28;20042;-59
2022/11/05 02:24:02;;;;;;;;;;;17.60;56.50;;;;;;5074535;28;20364;-60
2022/11/05 02:26:33;;;;;;;;;;;17.60;56.40;;;;;;5074087;28;19909;-59
2022/11/05 02:29:10;;;;;;;;;;;17.50;56.30;;;;;;5056244;28;19939;-60
2022/11/05 02:31:44;;;;;;;;;;;17.50;56.40;;;;;;5074548;28;20343;-60
2022/11/05 02:34:12;;;;;;;;;;;17.40;56.60;;;;;;5056569;28;19912;-60
2022/11/05 02:36:43;;;;;;;;;;;17.40;56.60;;;;;;5039871;28;19915;-59
2022/11/05 02:39:12;;;;;;;;;;;17.40;56.60;;;;;;5056945;28;19908;-59
2022/11/05 02:41:44;;;;;;;;;;;17.40;56.60;;;;;;5056265;28;20047;-60
2022/11/05 02:44:28;;;;;;;;;;;17.40;56.60;;;;;;5055892;28;19908;-60
2022/11/05 02:47:04;;;;;;;;;;;17.50;56.60;;;;;;5074165;28;19924;-59
2022/11/05 02:49:38;;;;;;;;;;;17.50;56.40;;;;;;5056406;28;19916;-59
2022/11/05 02:52:05;;;;;;;;;;;17.50;56.40;;;;;;5056327;28;19954;-59
2022/11/05 02:54:35;;;;;;;;;;;17.50;56.30;;;;;;5056170;28;19976;-59
2022/11/05 02:57:01;;;;;;;;;;;17.50;56.30;;;;;;5055888;28;19958;-60
2022/11/05 02:59:27;;;;;;;;;;;17.60;56.30;;;;;;5039126;28;19958;-60
2022/11/05 03:01:52;;;;;;;;;;;17.60;56.20;;;;;;5056145;28;19908;-59
2022/11/05 03:04:18;;;;;;;;;;;17.50;56.20;;;;;;5073847;28;20390;-59
2022/11/05 03:06:48;;;;;;;;;;;17.60;56.30;;;;;;5055802;28;19912;-59
2022/11/05 03:09:13;;;;;;;;;;;17.60;56.30;;;;;;5056208;28;19908;-59
2022/11/05 03:11:59;;;;;;;;;;;17.50;56.20;;;;;;5073409;28;19943;-59
2022/11/05 03:14:43;;;;;;;;;;;17.60;56.20;;;;;;5072636;28;19916;-59
2022/11/05 03:17:14;;;;;;;;;;;17.60;56.10;;;;;;5073610;28;20375;-60
2022/11/05 03:19:45;;;;;;;;;;;17.60;56.10;;;;;;5073544;28;19909;-59
2022/11/05 03:22:12;;;;;;;;;;;17.60;56.10;;;;;;5055661;28;20020;-59
2022/11/05 03:24:38;;;;;;;;;;;17.60;56.10;;;;;;5055503;28;20394;-59
2022/11/05 03:27:05;;;;;;;;;;;17.60;56.10;;;;;;5038403;28;19923;-60
2022/11/05 03:29:34;;;;;;;;;;;17.60;56.20;;;;;;5038598;28;19914;-59
2022/11/05 03:32:00;;;;;;;;;;;17.50;56.00;;;;;;5055575;28;20371;-59
2022/11/05 03:34:30;;;;;;;;;;;17.50;56.10;;;;;;5055429;28;19920;-60
2022/11/05 03:36:55;;;;;;;;;;;17.50;56.10;;;;;;5055484;28;19915;-60
2022/11/05 03:39:25;;;;;;;;;;;17.50;56.20;;;;;;5073492;28;19909;-60
2022/11/05 03:41:50;;;;;;;;;;;17.40;56.30;;;;;;5038482;28;20333;-59
2022/11/05 03:44:17;;;;;;;;;;;17.40;56.30;;;;;;5054796;28;19955;-60
2022/11/05 03:46:44;;;;;;;;;;;17.40;56.30;;;;;;5055097;28;20009;-59
2022/11/05 03:49:11;;;;;;;;;;;17.40;56.30;;;;;;5055292;28;19912;-59
2022/11/05 03:51:40;;;;;;;;;;;17.40;56.40;;;;;;5055289;28;19948;-60
2022/11/05 03:54:05;;;;;;;;;;;17.40;56.30;;;;;;5055050;28;19958;-59
2022/11/05 03:56:31;;;;;;;;;;;17.40;56.40;;;;;;5072278;28;19909;-59
2022/11/05 03:58:56;;;;;;;;;;;17.40;56.40;;;;;;5071151;28;19920;-59
2022/11/05 04:01:21;;;;;;;;;;;17.40;56.30;;;;;;5055027;28;20287;-60
2022/11/05 04:03:47;;;;;;;;;;;17.40;56.30;;;;;;5054930;28;20280;-59
2022/11/05 04:14:25;;;;;;;;;;;17.30;56.30;;;;;;5057124;28;19931;-60
2022/11/05 04:17:07;;;;;;;;;;;17.40;56.30;;;;;;5054708;28;19909;-59
2022/11/05 04:25:01;;;;;;;;;;;17.50;56.10;;;;;;5072736;28;19915;-59
2022/11/05 04:27:26;;;;;;;;;;;17.50;56.00;;;;;;5054161;28;19916;-59
2022/11/05 04:32:36;;;;;;;;;;;17.50;55.90;;;;;;5057568;28;20070;-59
2022/11/05 04:35:01;;;;;;;;;;;17.50;55.80;;;;;;5054482;28;19952;-59
2022/11/05 04:37:27;;;;;;;;;;;17.50;55.80;;;;;;5038001;28;19962;-59
2022/11/05 04:39:52;;;;;;;;;;;17.50;55.80;;;;;;5091531;28;20348;-60
2022/11/05 04:42:18;;;;;;;;;;;17.50;55.80;;;;;;5092642;28;20355;-59
2022/11/05 04:44:43;;;;;;;;;;;17.50;55.90;;;;;;5092153;28;19920;-60
2022/11/05 04:47:09;;;;;;;;;;;17.40;56.00;;;;;;5092420;28;20011;-60
2022/11/05 04:49:34;;;;;;;;;;;17.40;56.00;;;;;;5092545;28;19917;-60
2022/11/05 04:52:00;;;;;;;;;;;17.40;56.00;;;;;;5057707;28;20260;-60
2022/11/05 04:54:25;;;;;;;;;;;17.40;56.70;;;;;;5074502;28;19908;-60
2022/11/05 04:56:51;;;;;;;;;;;17.40;56.10;;;;;;5092126;28;19915;-59
2022/11/05 04:59:16;;;;;;;;;;;17.40;56.10;;;;;;5092107;28;19938;-60
2022/11/05 05:01:41;;;;;;;;;;;17.30;56.10;;;;;;5092450;28;19957;-59
2022/11/05 05:04:07;;;;;;;;;;;17.30;56.10;;;;;;5078904;28;19908;-60
2022/11/05 05:06:32;;;;;;;;;;;17.30;56.10;;;;;;5054203;28;19909;-60
2022/11/05 05:08:58;;;;;;;;;;;17.30;56.10;;;;;;5084133;28;19908;-60
2022/11/05 05:11:23;;;;;;;;;;;17.30;56.10;;;;;;5061108;28;20279;-59
2022/11/05 05:13:49;;;;;;;;;;;17.30;56.10;;;;;;5095919;28;20275;-59
2022/11/05 05:16:19;;;;;;;;;;;17.30;56.10;;;;;;5078212;28;20362;-59
2022/11/05 05:18:44;;;;;;;;;;;17.30;56.20;;;;;;5077881;28;19915;-59
2022/11/05 05:23:54;;;;;;;;;;;17.20;56.20;;;;;;5080775;28;19916;-60
2022/11/05 05:26:19;;;;;;;;;;;17.30;56.20;;;;;;5095701;28;20312;-59
2022/11/05 05:28:45;;;;;;;;;;;17.30;56.20;;;;;;5095272;28;19962;-60
2022/11/05 05:31:10;;;;;;;;;;;17.30;56.10;;;;;;5096079;28;19965;-60
2022/11/05 05:33:36;;;;;;;;;;;17.30;56.10;;;;;;5095973;28;19957;-59
2022/11/05 05:36:01;;;;;;;;;;;17.30;56.20;;;;;;5095811;28;19908;-60
2022/11/05 05:38:27;;;;;;;;;;;17.30;56.10;;;;;;5095405;28;19915;-59
2022/11/05 05:40:55;;;;;;;;;;;17.30;56.20;;;;;;5077745;28;20401;-60
2022/11/05 05:43:21;;;;;;;;;;;17.30;56.10;;;;;;5067843;28;19909;-59
2022/11/05 05:45:46;;;;;;;;;;;17.20;56.10;;;;;;5075481;28;19919;-60
2022/11/05 05:48:12;;;;;;;;;;;17.30;56.10;;;;;;5057408;28;20011;-59
2022/11/05 05:50:37;;;;;;;;;;;17.20;56.10;;;;;;5040810;28;19909;-60
2022/11/05 05:53:02;;;;;;;;;;;17.20;56.10;;;;;;5057288;28;19973;-59
2022/11/05 05:55:28;;;;;;;;;;;17.30;56.10;;;;;;5075430;28;19982;-60
2022/11/05 05:57:53;;;;;;;;;;;17.30;56.10;;;;;;5074366;28;19909;-60
2022/11/05 06:00:19;;;;;;;;;;;17.30;56.10;;;;;;5075220;28;19909;-60
2022/11/05 06:02:44;;;;;;;;;;;17.20;55.90;;;;;;5057193;28;19912;-59
2022/11/05 06:05:10;;;;;;;;;;;17.30;56.00;;;;;;5057487;28;20275;-60
2022/11/05 06:07:35;;;;;;;;;;;17.20;56.00;;;;;;5056937;28;19964;-60
2022/11/05 06:10:01;;;;;;;;;;;17.20;56.00;;;;;;5074133;28;20275;-60
2022/11/05 06:12:28;;;;;;;;;;;17.20;56.00;;;;;;5074622;28;20054;-60
2022/11/05 06:14:53;;;;;;;;;;;17.20;56.00;;;;;;5074559;28;19909;-59
2022/11/05 06:17:19;;;;;;;;;;;17.20;56.00;;;;;;5057038;28;19909;-59
2022/11/05 06:19:44;;;;;;;;;;;17.20;56.00;;;;;;5039868;28;19909;-59
2022/11/05 06:22:09;;;;;;;;;;;17.20;56.10;;;;;;5056784;28;19912;-59
2022/11/05 06:24:35;;;;;;;;;;;17.20;56.10;;;;;;5040001;28;19937;-59
2022/11/05 06:27:00;;;;;;;;;;;17.20;56.10;;;;;;5074249;28;19916;-59
2022/11/05 06:29:26;;;;;;;;;;;17.20;56.00;;;;;;5056310;28;19912;-59
2022/11/05 06:31:51;;;;;;;;;;;17.20;56.00;;;;;;5056704;28;19948;-59
2022/11/05 06:34:17;;;;;;;;;;;17.20;56.00;;;;;;5074495;28;19908;-60
2022/11/05 06:36:42;;;;;;;;;;;17.20;56.00;;;;;;5074736;28;19916;-59
2022/11/05 06:39:11;;;;;;;;;;;17.20;56.00;;;;;;5065915;28;19909;-59
2022/11/05 06:41:36;;;;;;;;;;;17.20;56.10;;;;;;5073998;28;20371;-59
2022/11/05 06:44:02;;;;;;;;;;;17.20;56.10;;;;;;5072675;28;20006;-59
2022/11/05 06:46:27;;;;;;;;;;;17.20;56.10;;;;;;5073036;28;20308;-60
2022/11/05 06:48:53;;;;;;;;;;;17.20;56.00;;;;;;5073048;28;19913;-60
2022/11/05 06:51:18;;;;;;;;;;;17.20;55.90;;;;;;5072992;28;19955;-60
2022/11/05 06:53:44;;;;;;;;;;;17.20;56.50;;;;;;5056121;28;19909;-60
2022/11/05 06:56:09;;;;;;;;;;;17.20;55.90;;;;;;5072521;28;20272;-59
2022/11/05 06:58:34;;;;;;;;;;;17.20;55.90;;;;;;5073687;28;20253;-60
2022/11/05 07:01:01;;;;;;;;;;;17.20;55.90;;;;;;5072799;28;20194;-59
2022/11/05 07:03:27;;;;;;;;;;;17.20;55.90;;;;;;5067011;28;20337;-60
2022/11/05 07:05:52;;;;;;;;;;;17.20;56.00;;;;;;5056050;28;19912;-59
2022/11/05 07:08:18;;;;;;;;;;;17.20;56.00;;;;;;5079625;28;19912;-59
2022/11/05 07:10:43;;;;;;;;;;;17.10;55.90;;;;;;5075939;28;19912;-59
2022/11/05 07:13:09;;;;;;;;;;;17.10;55.90;;;;;;5075109;28;20325;-60
2022/11/05 07:15:34;;;;;;;;;;;17.10;56.00;;;;;;5075917;28;19908;-59
2022/11/05 07:18:00;;;;;;;;;;;17.10;56.00;;;;;;5075663;28;20263;-59
2022/11/05 07:20:25;;;;;;;;;;;17.10;56.00;;;;;;5075757;28;20369;-60
2022/11/05 07:22:51;;;;;;;;;;;17.10;55.90;;;;;;5075550;28;19908;-60
2022/11/05 07:25:16;;;;;;;;;;;17.10;55.90;;;;;;5093878;28;19986;-60
2022/11/05 07:27:42;;;;;;;;;;;17.20;56.00;;;;;;5071293;28;19928;-59
2022/11/05 07:30:08;;;;;;;;;;;17.20;56.00;;;;;;5055556;28;20364;-59
2022/11/05 07:32:40;;;;;;;;;;;17.20;55.90;;;;;;5071485;28;19961;-59
2022/11/05 07:35:06;;;;;;;;;;;17.20;55.90;;;;;;5072150;28;20265;-59
2022/11/05 07:37:31;;;;;;;;;;;17.20;55.90;;;;;;5072026;28;19916;-59
2022/11/05 07:39:57;;;;;;;;;;;17.20;55.90;;;;;;5071638;28;19908;-59
2022/11/05 07:42:22;;;;;;;;;;;17.20;55.90;;;;;;5071658;28;19915;-59
2022/11/05 07:44:48;;;;;;;;;;;17.20;55.90;;;;;;5052895;28;19909;-60
2022/11/05 07:47:13;;;;;;;;;;;17.20;55.90;;;;;;5053048;28;19913;-59
2022/11/05 07:49:38;;;;;;;;;;;17.20;55.90;;;;;;5051863;28;19909;-60
2022/11/05 07:52:04;;;;;;;;;;;17.20;55.90;;;;;;5051906;28;20418;-59
2022/11/05 07:54:29;;;;;;;;;;;17.20;55.90;;;;;;5053358;28;20280;-59
2022/11/05 07:56:55;;;;;;;;;;;17.20;55.80;;;;;;5051456;28;19909;-60
2022/11/05 07:59:20;;;;;;;;;;;17.20;55.80;;;;;;5051361;28;19935;-59
2022/11/05 08:01:46;;;;;;;;;;;17.20;55.70;;;;;;5051709;28;19966;-59
2022/11/05 08:04:11;;;;;;;;;;;17.20;55.80;;;;;;5051437;28;19963;-59
2022/11/05 08:06:37;;;;;;;;;;;17.20;56.50;;;;;;5052727;28;19987;-59
2022/11/05 08:09:02;;;;;;;;;;;17.20;55.90;;;;;;5051792;28;19935;-59
2022/11/05 08:11:27;;;;;;;;;;;17.20;55.80;;;;;;5051223;28;19908;-59
2022/11/05 08:13:53;;;;;;;;;;;17.20;55.80;;;;;;5052400;28;19991;-60
2022/11/05 08:16:18;;;;;;;;;;;17.20;55.80;;;;;;5034835;28;19958;-59
2022/11/05 08:18:44;;;;;;;;;;;17.20;55.80;;;;;;5051346;28;19909;-59
2022/11/05 08:21:10;;;;;;;;;;;17.20;55.80;;;;;;5052734;28;19916;-60
2022/11/05 08:23:35;;;;;;;;;;;17.20;55.70;;;;;;5052687;28;19909;-59
2022/11/05 08:26:01;;;;;;;;;;;17.20;55.60;;;;;;5034317;28;19909;-59
2022/11/05 08:28:26;;;;;;;;;;;17.20;55.60;;;;;;5050705;28;20016;-59
2022/11/05 08:30:53;;;;;;;;;;;17.20;55.60;;;;;;5051421;28;19909;-59
2022/11/05 08:33:19;;;;;;;;;;;17.20;55.60;;;;;;5043921;28;19915;-59
2022/11/05 08:35:45;;;;;;;;;;;17.30;55.50;;;;;;5051417;28;20303;-59
2022/11/05 08:38:14;;;;;;;;;;;17.30;55.40;;;;;;5057173;28;19919;-59
2022/11/05 08:40:40;;;;;;;;;;;17.30;55.40;;;;;;5071422;28;20019;-59
2022/11/05 08:43:06;;;;;;;;;;;17.30;55.40;;;;;;5054291;28;20007;-59
2022/11/05 08:45:31;;;;;;;;;;;17.40;55.40;;;;;;5075557;28;19915;-59
2022/11/05 08:47:58;;;;;;;;;;;17.40;55.40;;;;;;5075193;28;20023;-59
2022/11/05 08:50:23;;;;;;;;;;;17.30;55.30;;;;;;5075386;28;19965;-59
2022/11/05 08:52:49;;;;;;;;;;;17.30;55.30;;;;;;5075191;28;19913;-59
2022/11/05 08:55:17;;;;;;;;;;;17.30;55.40;;;;;;5075347;28;19999;-60
2022/11/05 08:57:46;;;;;;;;;;;17.30;55.40;;;;;;5075482;28;19908;-59
2022/11/05 09:00:14;;;;;;;;;;;17.30;55.50;;;;;;5076500;28;19909;-59
2022/11/05 09:02:39;;;;;;;;;;;17.30;55.40;;;;;;5072368;28;19908;-60
2022/11/05 09:05:05;;;;;;;;;;;17.30;55.40;;;;;;5055052;28;19916;-60
2022/11/05 09:07:30;;;;;;;;;;;17.30;55.40;;;;;;5056363;28;20007;-59
2022/11/05 09:09:56;;;;;;;;;;;17.30;55.30;;;;;;5055135;28;19913;-59
2022/11/05 09:12:21;;;;;;;;;;;17.40;55.50;;;;;;5055813;28;19915;-60
2022/11/05 09:14:47;;;;;;;;;;;17.40;55.40;;;;;;5055666;28;19958;-60
2022/11/05 09:17:19;;;;;;;;;;;17.40;55.40;;;;;;5038080;28;19955;-59
2022/11/05 09:19:45;;;;;;;;;;;17.40;55.30;;;;;;5054713;28;19916;-59
2022/11/05 09:22:11;;;;;;;;;;;17.40;55.20;;;;;;5056076;28;19912;-59
2022/11/05 09:24:42;;;;;;;;;;;17.40;55.20;;;;;;5054643;28;19934;-59
2022/11/05 09:27:09;;;;;;;;;;;17.40;55.20;;;;;;5060803;28;20016;-59
2022/11/05 09:29:34;;;;;;;;;;;17.40;55.20;;;;;;5057726;28;19996;-60
2022/11/05 09:32:00;;;;;;;;;;;17.40;55.20;;;;;;5057879;28;19944;-59
2022/11/05 09:34:25;;;;;;;;;;;17.40;55.20;;;;;;5075656;28;19909;-60
2022/11/05 09:36:51;;;;;;;;;;;17.40;55.30;;;;;;5075686;28;20014;-59
2022/11/05 09:39:16;;;;;;;;;;;17.40;55.40;;;;;;5075807;28;19913;-60
2022/11/05 09:41:43;;;;;;;;;;;17.40;55.40;;;;;;5075148;28;19908;-59
2022/11/05 09:44:10;;;;;;;;;;;17.40;55.40;;;;;;5057406;28;19909;-60
2022/11/05 09:46:42;;;;;;;;;;;17.40;55.40;;;;;;5040746;28;19999;-59
2022/11/05 09:49:11;;;;;;;;;;;17.40;55.40;;;;;;5075447;28;19913;-59
2022/11/05 09:51:38;;;;;;;;;;;17.40;55.40;;;;;;5057366;28;19912;-60
2022/11/05 09:54:04;;;;;;;;;;;17.40;55.40;;;;;;5057865;28;19908;-59
2022/11/05 09:56:30;;;;;;;;;;;17.40;55.40;;;;;;5074211;28;20252;-59
2022/11/05 09:58:59;;;;;;;;;;;17.40;55.40;;;;;;5056927;28;20050;-59
2022/11/05 10:01:27;;;;;;;;;;;17.40;55.30;;;;;;5057249;28;19931;-59
2022/11/05 10:03:53;;;;;;;;;;;17.50;55.30;;;;;;5057233;28;19908;-59
2022/11/05 10:06:20;;;;;;;;;;;17.50;55.20;;;;;;5057186;28;20283;-59
2022/11/05 10:08:46;;;;;;;;;;;17.50;55.30;;;;;;5057317;28;19919;-59
2022/11/05 10:11:19;;;;;;;;;;;17.50;55.20;;;;;;5056810;28;19908;-59
2022/11/05 10:13:46;;;;;;;;;;;17.40;55.30;;;;;;5056831;28;20010;-60
2022/11/05 10:16:17;;;;;;;;;;;17.40;55.40;;;;;;5040404;28;19915;-59
2022/11/05 10:18:43;;;;;;;;;;;17.40;55.40;;;;;;5040170;28;19909;-59
2022/11/05 10:21:12;;;;;;;;;;;17.40;55.30;;;;;;5040286;28;20302;-59
2022/11/05 10:23:38;;;;;;;;;;;17.50;55.40;;;;;;5056996;28;20275;-59
2022/11/05 10:26:08;;;;;;;;;;;17.50;55.30;;;;;;5039679;28;19916;-59
2022/11/05 10:28:34;;;;;;;;;;;17.50;55.30;;;;;;5056133;28;19920;-59
2022/11/05 10:31:00;;;;;;;;;;;17.50;55.20;;;;;;5040054;28;20444;-59
2022/11/05 10:33:45;;;;;;;;;;;17.50;55.30;;;;;;5056503;28;19909;-60
2022/11/05 10:36:12;;;;;;;;;;;17.50;55.20;;;;;;5039938;28;19916;-59
2022/11/05 10:38:38;;;;;;;;;;;17.50;55.20;;;;;;5056860;28;20006;-59
2022/11/05 10:41:06;;;;;;;;;;;17.60;55.10;;;;;;5074103;28;19912;-59
2022/11/05 10:43:45;;;;;;;;;;;17.50;55.10;;;;;;5074013;28;19908;-59
2022/11/05 10:46:43;;;;;;;;;;;17.50;55.20;;;;;;5074470;28;19916;-59
2022/11/05 10:49:14;;;;;;;;;;;17.50;55.30;;;;;;5019111;28;19912;-59
2022/11/05 10:51:39;;;;;;;;;;;17.50;55.20;;;;;;5039775;28;19915;-60
2022/11/05 10:54:08;;;;;;;;;;;17.50;55.40;;;;;;5056195;28;20303;-60
2022/11/05 10:56:37;;;;;;;;;;;17.50;55.30;;;;;;5055754;28;19909;-60
2022/11/05 10:59:03;;;;;;;;;;;17.50;55.20;;;;;;5055804;28;19919;-60
2022/11/05 11:01:29;;;;;;;;;;;17.50;55.30;;;;;;5056189;28;19908;-59
2022/11/05 11:04:05;;;;;;;;;;;17.50;55.30;;;;;;5055946;28;19915;-59
2022/11/05 11:06:31;;;;;;;;;;;17.50;55.30;;;;;;5055127;28;19918;-59
2022/11/05 11:09:01;;;;;;;;;;;17.50;55.30;;;;;;5046872;28;19912;-60
2022/11/05 11:11:40;;;;;;;;;;;17.50;55.50;;;;;;5055683;28;19913;-59
2022/11/05 11:14:05;;;;;;;;;;;17.50;55.20;;;;;;5073440;28;20170;-60
2022/11/05 11:16:33;;;;;;;;;;;17.50;55.30;;;;;;5073695;28;19999;-60
2022/11/05 11:18:59;;;;;;;;;;;17.50;55.30;;;;;;5072465;28;20432;-59
2022/11/05 11:21:25;;;;;;;;;;;17.50;55.40;;;;;;5072344;28;19954;-60
2022/11/05 11:23:54;;;;;;;;;;;17.50;55.40;;;;;;5038819;28;19908;-59
2022/11/05 11:26:20;;;;;;;;;;;17.50;55.40;;;;;;5071806;28;19916;-59
2022/11/05 11:28:47;;;;;;;;;;;17.50;55.30;;;;;;5055007;28;19928;-59
2022/11/05 11:31:16;;;;;;;;;;;17.50;55.30;;;;;;5038899;28;19915;-60
2022/11/05 11:33:43;;;;;;;;;;;17.40;55.40;;;;;;5055376;28;19916;-59
2022/11/05 11:36:09;;;;;;;;;;;17.50;55.50;;;;;;5055665;28;19934;-59
2022/11/05 11:38:35;;;;;;;;;;;17.50;55.50;;;;;;5055677;28;20265;-59
2022/11/05 11:41:15;;;;;;;;;;;17.50;55.50;;;;;;5055138;28;19908;-59
2022/11/05 11:43:41;;;;;;;;;;;17.50;55.50;;;;;;5055132;28;19913;-60
2022/11/05 11:46:17;;;;;;;;;;;17.50;55.40;;;;;;5055545;28;19965;-59
2022/11/05 11:48:44;;;;;;;;;;;17.50;55.40;;;;;;5072990;28;19968;-59
2022/11/05 11:51:28;;;;;;;;;;;17.60;55.30;;;;;;5038723;28;19909;-59
2022/11/05 11:53:57;;;;;;;;;;;17.60;55.10;;;;;;5073111;28;19963;-59
2022/11/05 11:56:22;;;;;;;;;;;17.60;55.20;;;;;;5054655;28;19909;-59
2022/11/05 11:58:49;;;;;;;;;;;17.60;55.20;;;;;;5054740;28;19916;-60
2022/11/05 12:01:29;;;;;;;;;;;17.60;55.30;;;;;;5055197;28;19912;-59
2022/11/05 12:04:03;;;;;;;;;;;17.50;55.40;;;;;;5072920;28;19948;-60
2022/11/05 12:06:37;;;;;;;;;;;17.40;55.60;;;;;;5072800;28;19913;-59
2022/11/05 12:09:05;;;;;;;;;;;17.40;55.70;;;;;;5046883;28;19966;-59
2022/11/05 12:11:31;;;;;;;;;;;17.40;55.70;;;;;;5071240;28;19913;-59
2022/11/05 12:14:01;;;;;;;;;;;17.50;55.70;;;;;;5072465;28;19912;-60
2022/11/05 12:16:39;;;;;;;;;;;17.50;55.70;;;;;;5071480;28;19912;-59
2022/11/05 12:19:19;;;;;;;;;;;17.50;55.70;;;;;;5071090;28;20367;-59
2022/11/05 12:22:06;;;;;;;;;;;17.50;55.50;;;;;;5072670;28;19909;-59
2022/11/05 12:24:52;;;;;;;;;;;17.50;55.50;;;;;;5071330;28;19995;-59
2022/11/05 12:27:21;;;;;;;;;;;17.50;55.50;;;;;;5053161;28;20023;-59
2022/11/05 12:30:04;;;;;;;;;;;17.50;55.70;;;;;;5070580;28;21283;-60
2022/11/05 12:32:42;;;;;;;;;;;17.50;55.70;;;;;;5071400;28;19913;-59
2022/11/05 12:35:26;;;;;;;;;;;17.50;55.70;;;;;;5071348;28;19912;-60
2022/11/05 12:38:07;;;;;;;;;;;17.50;55.80;;;;;;5074829;28;19912;-59
2022/11/05 12:40:37;;;;;;;;;;;17.50;55.70;;;;;;5092665;28;20009;-59
2022/11/05 12:43:14;;;;;;;;;;;17.50;55.70;;;;;;5053487;28;20088;-59
2022/11/05 12:45:39;;;;;;;;;;;17.50;55.70;;;;;;5054608;28;19908;-59
2022/11/05 12:48:13;;;;;;;;;;;17.60;55.70;;;;;;5072436;28;19931;-59
2022/11/05 12:50:42;;;;;;;;;;;17.60;55.60;;;;;;5037830;28;19909;-59
2022/11/05 12:53:10;;;;;;;;;;;17.60;55.40;;;;;;5054241;28;19920;-59
2022/11/05 12:55:36;;;;;;;;;;;17.60;55.60;;;;;;5072426;28;19915;-59
2022/11/05 12:58:28;;;;;;;;;;;17.60;55.70;;;;;;5053562;28;20352;-59
2022/11/05 13:00:55;;;;;;;;;;;17.60;55.70;;;;;;5041262;28;19915;-59
2022/11/05 13:03:37;;;;;;;;;;;17.50;55.60;;;;;;5054155;28;19915;-59
2022/11/05 13:06:11;;;;;;;;;;;17.50;55.70;;;;;;5037602;28;20333;-59
2022/11/05 13:08:55;;;;;;;;;;;17.50;55.80;;;;;;5062652;28;19931;-59
2022/11/05 13:11:28;;;;;;;;;;;17.50;55.80;;;;;;5092010;28;19912;-59
2022/11/05 13:14:05;;;;;;;;;;;17.50;56.00;;;;;;5073794;28;19977;-59
2022/11/05 13:16:35;;;;;;;;;;;17.50;55.90;;;;;;5074278;28;19912;-59
2022/11/05 13:19:02;;;;;;;;;;;17.50;55.80;;;;;;5074122;28;19912;-59
2022/11/05 13:21:28;;;;;;;;;;;17.50;55.90;;;;;;5055895;28;19912;-59
2022/11/05 13:23:56;;;;;;;;;;;17.50;56.00;;;;;;5054022;28;19962;-59
2022/11/05 13:26:30;;;;;;;;;;;17.50;56.00;;;;;;5071609;28;20368;-59
2022/11/05 13:29:01;;;;;;;;;;;17.50;56.00;;;;;;5071388;28;19927;-59
2022/11/05 13:31:30;;;;;;;;;;;17.50;56.00;;;;;;5056795;28;19967;-59
2022/11/05 13:33:55;;;;;;;;;;;17.50;56.00;;;;;;5057709;28;20391;-59
2022/11/05 13:39:18;;;;;;;;;;;17.50;56.00;;;;;;5060719;28;19954;-60
2022/11/05 13:41:43;;;;;;;;;;;17.50;56.00;;;;;;5075313;28;19908;-59
2022/11/05 13:44:12;;;;;;;;;;;17.50;56.00;;;;;;5075110;28;19913;-59
2022/11/05 13:46:46;;;;;;;;;;;17.50;56.00;;;;;;5057421;28;19962;-59
2022/11/05 13:49:27;;;;;;;;;;;17.50;55.90;;;;;;5057443;28;19924;-59
2022/11/05 13:51:53;;;;;;;;;;;17.50;55.80;;;;;;5057289;28;20364;-59
2022/11/05 13:54:19;;;;;;;;;;;17.60;55.90;;;;;;5040663;28;20352;-59
2022/11/05 13:56:44;;;;;;;;;;;17.60;55.80;;;;;;5074925;28;19919;-59
2022/11/05 13:59:29;;;;;;;;;;;17.60;55.80;;;;;;5074898;28;20007;-59
2022/11/05 14:02:02;;;;;;;;;;;17.70;55.80;;;;;;5057262;28;20011;-59
2022/11/05 14:04:30;;;;;;;;;;;17.70;55.70;;;;;;5057209;28;20006;-59
2022/11/05 14:07:14;;;;;;;;;;;17.60;55.80;;;;;;5074830;28;20380;-59
2022/11/05 14:09:39;;;;;;;;;;;17.60;55.90;;;;;;5043590;28;20372;-59
2022/11/05 14:12:05;;;;;;;;;;;17.60;55.90;;;;;;5056620;28;19979;-60
2022/11/05 14:14:33;;;;;;;;;;;17.60;56.00;;;;;;5040075;28;19919;-60
2022/11/05 14:17:08;;;;;;;;;;;17.60;55.90;;;;;;5056837;28;19987;-60
2022/11/05 14:19:53;;;;;;;;;;;17.60;55.80;;;;;;5074808;28;20265;-60
2022/11/05 14:22:31;;;;;;;;;;;17.60;55.90;;;;;;5023933;28;20272;-59
2022/11/05 14:24:59;;;;;;;;;;;17.70;55.80;;;;;;5074824;28;19908;-60
2022/11/05 14:27:28;;;;;;;;;;;17.70;55.70;;;;;;5056048;28;20196;-59
2022/11/05 14:29:53;;;;;;;;;;;17.70;55.80;;;;;;5074216;28;19909;-59
2022/11/05 14:32:19;;;;;;;;;;;17.60;55.80;;;;;;5056671;28;19908;-59
2022/11/05 14:34:52;;;;;;;;;;;17.60;55.90;;;;;;5074472;28;19916;-60
2022/11/05 14:37:24;;;;;;;;;;;17.60;56.00;;;;;;5056723;28;20253;-59
2022/11/05 14:39:51;;;;;;;;;;;17.60;56.00;;;;;;5071791;28;19912;-60
2022/11/05 14:42:19;;;;;;;;;;;17.60;56.00;;;;;;5072411;28;20015;-60
2022/11/05 14:44:58;;;;;;;;;;;17.60;56.10;;;;;;5056054;28;19908;-59
2022/11/05 14:47:24;;;;;;;;;;;17.60;56.10;;;;;;5074220;28;19913;-59
2022/11/05 14:49:54;;;;;;;;;;;17.50;56.10;;;;;;5074154;28;19928;-59
2022/11/05 14:52:19;;;;;;;;;;;17.50;56.10;;;;;;5056358;28;19908;-59
2022/11/05 14:54:46;;;;;;;;;;;17.50;56.00;;;;;;5074020;28;19908;-60
2022/11/05 14:57:13;;;;;;;;;;;17.60;56.10;;;;;;5055848;28;19908;-60
2022/11/05 14:59:59;;;;;;;;;;;17.60;56.00;;;;;;5055889;28;19908;-59
2022/11/05 15:02:35;;;;;;;;;;;17.60;55.90;;;;;;5063475;28;19956;-59
2022/11/05 15:05:19;;;;;;;;;;;17.50;56.00;;;;;;5055981;28;19978;-59
2022/11/05 15:07:45;;;;;;;;;;;17.60;56.10;;;;;;5074942;28;19960;-60